sensor_id;sensor_type;location;lat;lon;timestamp;temperature;humidity
9125;DHT22;4597;48.730;9.114;2022-12-01T00:00:55;4.80;99.90
9125;DHT22;4597;48.730;9.114;2022-12-01T00:03:20;4.80;99.90
9125;DHT22;4597;48.730;9.114;2022-12-01T00:05:46;4.80;99.90
9125;DHT22;4597;48.730;9.114;2022-12-01T00:08:12;4.80;99.90
9125;DHT22;4597;48.730;9.114;2022-12-01T00:10:37;4.80;99.90
9125;DHT22;4597;48.730;9.114;2022-12-01T00:13:04;4.80;99.90
9125;DHT22;4597;48.730;9.114;2022-12-01T00:15:35;4.80;99.90
9125;DHT22;4597;48.730;9.114;2022-12-01T00:18:02;4.70;99.90
9125;DHT22;4597;48.730;9.114;2022-12-01T00:20:28;4.70;99.90
9125;DHT22;4597;48.730;9.114;2022-12-01T00:22:54;4.70;99.90
9125;DHT22;4597;48.730;9.114;2022-12-01T00:25:20;4.70;99.90
9125;DHT22;4597;48.730;9.114;2022-12-01T00:27:50;4.70;99.90
9125;DHT22;4597;48.730;9.114;2022-12-01T00:30:18;4.70;99.90
9125;DHT22;4597;48.730;9.114;2022-12-01T00:32:44;4.60;99.90
9125;DHT22;4597;48.730;9.114;2022-12-01T00:35:10;4.60;99.90
9125;DHT22;4597;48.730;9.114;2022-12-01T00:37:36;4.60;99.90
9125;DHT22;4597;48.730;9.114;2022-12-01T00:40:02;4.60;99.90
9125;DHT22;4597;48.730;9.114;2022-12-01T00:42:28;4.60;99.90
9125;DHT22;4597;48.730;9.114;2022-12-01T00:44:54;4.60;99.90
9125;DHT22;4597;48.730;9.114;2022-12-01T00:47:20;4.60;99.90
9125;DHT22;4597;48.730;9.114;2022-12-01T00:49:45;4.60;99.90
9125;DHT22;4597;48.730;9.114;2022-12-01T00:52:12;4.60;99.90
9125;DHT22;4597;48.730;9.114;2022-12-01T00:54:38;4.60;99.90
9125;DHT22;4597;48.730;9.114;2022-12-01T00:57:04;4.60;99.90
9125;DHT22;4597;48.730;9.114;2022-12-01T00:59:30;4.60;99.90
9125;DHT22;4597;48.730;9.114;2022-12-01T01:01:55;4.50;99.90
9125;DHT22;4597;48.730;9.114;2022-12-01T01:04:21;4.50;99.90
9125;DHT22;4597;48.730;9.114;2022-12-01T01:06:47;4.50;99.90
9125;DHT22;4597;48.730;9.114;2022-12-01T01:09:14;4.50;99.90
9125;DHT22;4597;48.730;9.114;2022-12-01T01:11:40;4.50;99.90
9125;DHT22;4597;48.730;9.114;2022-12-01T01:14:06;4.50;99.90
9125;DHT22;4597;48.730;9.114;2022-12-01T01:16:32;4.50;99.90
9125;DHT22;4597;48.730;9.114;2022-12-01T01:18:58;4.50;99.90
9125;DHT22;4597;48.730;9.114;2022-12-01T01:21:24;4.40;99.90
9125;DHT22;4597;48.730;9.114;2022-12-01T01:23:51;4.50;99.90
9125;DHT22;4597;48.730;9.114;2022-12-01T01:26:28;4.50;99.90
9125;DHT22;4597;48.730;9.114;2022-12-01T01:28:56;4.50;99.90
9125;DHT22;4597;48.730;9.114;2022-12-01T01:31:24;4.50;99.90
9125;DHT22;4597;48.730;9.114;2022-12-01T01:33:50;4.50;99.90
9125;DHT22;4597;48.730;9.114;2022-12-01T01:36:17;4.40;99.90
9125;DHT22;4597;48.730;9.114;2022-12-01T01:38:43;4.50;99.90
9125;DHT22;4597;48.730;9.114;2022-12-01T01:41:09;4.50;99.90
9125;DHT22;4597;48.730;9.114;2022-12-01T01:43:54;4.40;99.90
9125;DHT22;4597;48.730;9.114;2022-12-01T01:46:23;4.40;99.90
9125;DHT22;4597;48.730;9.114;2022-12-01T01:49:08;4.40;99.90
9125;DHT22;4597;48.730;9.114;2022-12-01T01:51:39;4.40;99.90
9125;DHT22;4597;48.730;9.114;2022-12-01T01:54:16;4.50;99.90
9125;DHT22;4597;48.730;9.114;2022-12-01T01:56:46;4.50;99.90
9125;DHT22;4597;48.730;9.114;2022-12-01T01:59:17;4.50;99.90
9125;DHT22;4597;48.730;9.114;2022-12-01T02:01:47;4.50;99.90
9125;DHT22;4597;48.730;9.114;2022-12-01T02:04:17;4.40;99.90
9125;DHT22;4597;48.730;9.114;2022-12-01T02:06:43;4.50;99.90
9125;DHT22;4597;48.730;9.114;2022-12-01T02:09:10;4.40;99.90
9125;DHT22;4597;48.730;9.114;2022-12-01T02:11:49;4.40;99.90
9125;DHT22;4597;48.730;9.114;2022-12-01T02:14:38;4.40;99.90
9125;DHT22;4597;48.730;9.114;2022-12-01T02:17:21;4.40;99.90
9125;DHT22;4597;48.730;9.114;2022-12-01T02:28:56;4.40;99.90
9125;DHT22;4597;48.730;9.114;2022-12-01T02:31:30;4.40;99.90
9125;DHT22;4597;48.730;9.114;2022-12-01T02:40:24;4.30;99.90
9125;DHT22;4597;48.730;9.114;2022-12-01T02:48:11;4.20;99.90
9125;DHT22;4597;48.730;9.114;2022-12-01T02:50:39;4.10;99.90
9125;DHT22;4597;48.730;9.114;2022-12-01T02:53:07;4.10;99.90
9125;DHT22;4597;48.730;9.114;2022-12-01T02:55:34;4.10;99.90
9125;DHT22;4597;48.730;9.114;2022-12-01T02:58:00;4.10;99.90
9125;DHT22;4597;48.730;9.114;2022-12-01T03:00:25;4.10;99.90
9125;DHT22;4597;48.730;9.114;2022-12-01T03:03:17;4.00;99.90
9125;DHT22;4597;48.730;9.114;2022-12-01T03:06:11;4.00;99.90
9125;DHT22;4597;48.730;9.114;2022-12-01T03:09:01;4.00;99.90
9125;DHT22;4597;48.730;9.114;2022-12-01T03:11:40;4.10;99.90
9125;DHT22;4597;48.730;9.114;2022-12-01T03:16:49;4.10;99.90
9125;DHT22;4597;48.730;9.114;2022-12-01T03:19:25;4.20;99.90
9125;DHT22;4597;48.730;9.114;2022-12-01T03:22:03;4.10;99.90
9125;DHT22;4597;48.730;9.114;2022-12-01T03:24:30;4.20;99.90
9125;DHT22;4597;48.730;9.114;2022-12-01T03:26:59;4.10;99.90
9125;DHT22;4597;48.730;9.114;2022-12-01T03:29:35;4.10;99.90
9125;DHT22;4597;48.730;9.114;2022-12-01T03:34:56;4.10;99.90
9125;DHT22;4597;48.730;9.114;2022-12-01T03:37:34;4.10;99.90
9125;DHT22;4597;48.730;9.114;2022-12-01T03:40:04;4.10;99.90
9125;DHT22;4597;48.730;9.114;2022-12-01T03:42:36;4.10;99.90
9125;DHT22;4597;48.730;9.114;2022-12-01T03:45:10;4.00;99.90
9125;DHT22;4597;48.730;9.114;2022-12-01T03:47:37;4.00;99.90
9125;DHT22;4597;48.730;9.114;2022-12-01T03:50:05;4.00;99.90
9125;DHT22;4597;48.730;9.114;2022-12-01T03:53:07;4.00;99.90
9125;DHT22;4597;48.730;9.114;2022-12-01T03:55:39;4.00;99.90
9125;DHT22;4597;48.730;9.114;2022-12-01T03:58:10;4.00;99.90
9125;DHT22;4597;48.730;9.114;2022-12-01T04:00:37;4.00;99.90
9125;DHT22;4597;48.730;9.114;2022-12-01T04:03:03;4.00;99.90
9125;DHT22;4597;48.730;9.114;2022-12-01T04:05:31;3.90;99.90
9125;DHT22;4597;48.730;9.114;2022-12-01T04:07:57;3.80;99.90
9125;DHT22;4597;48.730;9.114;2022-12-01T04:10:23;3.80;99.90
9125;DHT22;4597;48.730;9.114;2022-12-01T04:12:48;3.80;99.90
9125;DHT22;4597;48.730;9.114;2022-12-01T04:15:15;3.80;99.90
9125;DHT22;4597;48.730;9.114;2022-12-01T04:17:41;3.90;99.90
9125;DHT22;4597;48.730;9.114;2022-12-01T04:20:09;3.80;99.90
9125;DHT22;4597;48.730;9.114;2022-12-01T04:22:35;3.80;99.90
9125;DHT22;4597;48.730;9.114;2022-12-01T04:25:01;3.80;99.90
9125;DHT22;4597;48.730;9.114;2022-12-01T04:27:27;3.80;99.90
9125;DHT22;4597;48.730;9.114;2022-12-01T04:29:53;3.80;99.90
9125;DHT22;4597;48.730;9.114;2022-12-01T04:32:18;3.90;99.90
9125;DHT22;4597;48.730;9.114;2022-12-01T04:34:44;3.90;99.90
9125;DHT22;4597;48.730;9.114;2022-12-01T04:37:10;3.90;99.90
9125;DHT22;4597;48.730;9.114;2022-12-01T04:39:36;3.90;99.90
9125;DHT22;4597;48.730;9.114;2022-12-01T04:42:02;3.90;99.90
9125;DHT22;4597;48.730;9.114;2022-12-01T04:44:28;3.90;99.90
9125;DHT22;4597;48.730;9.114;2022-12-01T04:46:53;3.90;99.90
9125;DHT22;4597;48.730;9.114;2022-12-01T04:49:20;3.90;99.90
9125;DHT22;4597;48.730;9.114;2022-12-01T04:51:46;3.90;99.90
9125;DHT22;4597;48.730;9.114;2022-12-01T04:54:12;4.00;99.90
9125;DHT22;4597;48.730;9.114;2022-12-01T04:56:37;3.90;99.90
9125;DHT22;4597;48.730;9.114;2022-12-01T04:59:03;3.90;99.90
9125;DHT22;4597;48.730;9.114;2022-12-01T05:01:29;3.90;99.90
9125;DHT22;4597;48.730;9.114;2022-12-01T05:03:54;4.00;99.90
9125;DHT22;4597;48.730;9.114;2022-12-01T05:06:23;3.90;99.90
9125;DHT22;4597;48.730;9.114;2022-12-01T05:08:49;3.90;99.90
9125;DHT22;4597;48.730;9.114;2022-12-01T05:11:17;3.90;99.90
9125;DHT22;4597;48.730;9.114;2022-12-01T05:13:45;3.90;99.90
9125;DHT22;4597;48.730;9.114;2022-12-01T05:18:37;3.80;99.90
9125;DHT22;4597;48.730;9.114;2022-12-01T05:21:05;3.80;99.90
9125;DHT22;4597;48.730;9.114;2022-12-01T05:23:32;3.90;99.90
9125;DHT22;4597;48.730;9.114;2022-12-01T05:25:59;3.90;99.90
9125;DHT22;4597;48.730;9.114;2022-12-01T05:28:26;3.90;99.90
9125;DHT22;4597;48.730;9.114;2022-12-01T05:30:52;3.90;99.90
9125;DHT22;4597;48.730;9.114;2022-12-01T05:33:19;3.90;99.90
9125;DHT22;4597;48.730;9.114;2022-12-01T05:35:47;3.90;99.90
9125;DHT22;4597;48.730;9.114;2022-12-01T05:38:12;4.00;99.90
9125;DHT22;4597;48.730;9.114;2022-12-01T05:40:38;4.00;99.90
9125;DHT22;4597;48.730;9.114;2022-12-01T05:43:04;4.00;99.90
9125;DHT22;4597;48.730;9.114;2022-12-01T05:45:30;3.90;99.90
9125;DHT22;4597;48.730;9.114;2022-12-01T05:47:57;3.90;99.90
9125;DHT22;4597;48.730;9.114;2022-12-01T05:50:23;3.90;99.90
9125;DHT22;4597;48.730;9.114;2022-12-01T05:52:49;3.90;99.90
9125;DHT22;4597;48.730;9.114;2022-12-01T05:55:14;3.90;99.90
9125;DHT22;4597;48.730;9.114;2022-12-01T05:57:40;3.90;99.90
9125;DHT22;4597;48.730;9.114;2022-12-01T06:00:07;3.90;99.90
9125;DHT22;4597;48.730;9.114;2022-12-01T06:02:32;3.90;99.90
9125;DHT22;4597;48.730;9.114;2022-12-01T06:04:58;3.90;99.90
9125;DHT22;4597;48.730;9.114;2022-12-01T06:07:23;3.90;99.90
9125;DHT22;4597;48.730;9.114;2022-12-01T06:09:51;4.00;99.90
9125;DHT22;4597;48.730;9.114;2022-12-01T06:12:17;4.00;99.90
9125;DHT22;4597;48.730;9.114;2022-12-01T06:14:42;4.00;99.90
9125;DHT22;4597;48.730;9.114;2022-12-01T06:17:08;3.90;99.90
9125;DHT22;4597;48.730;9.114;2022-12-01T06:19:34;3.90;99.90
9125;DHT22;4597;48.730;9.114;2022-12-01T06:21:59;3.90;99.90
9125;DHT22;4597;48.730;9.114;2022-12-01T06:24:25;3.90;99.90
9125;DHT22;4597;48.730;9.114;2022-12-01T06:26:50;3.90;99.90
9125;DHT22;4597;48.730;9.114;2022-12-01T06:29:16;3.90;99.90
9125;DHT22;4597;48.730;9.114;2022-12-01T06:31:41;3.90;99.90
9125;DHT22;4597;48.730;9.114;2022-12-01T06:34:07;3.90;99.90
9125;DHT22;4597;48.730;9.114;2022-12-01T06:36:33;4.00;99.90
9125;DHT22;4597;48.730;9.114;2022-12-01T06:38:58;4.00;99.90
9125;DHT22;4597;48.730;9.114;2022-12-01T06:41:24;4.00;99.90
9125;DHT22;4597;48.730;9.114;2022-12-01T06:43:49;4.00;99.90
9125;DHT22;4597;48.730;9.114;2022-12-01T06:46:15;4.00;99.90
9125;DHT22;4597;48.730;9.114;2022-12-01T06:48:40;4.00;99.90
9125;DHT22;4597;48.730;9.114;2022-12-01T06:51:06;4.00;99.90
9125;DHT22;4597;48.730;9.114;2022-12-01T06:53:32;3.90;99.90
9125;DHT22;4597;48.730;9.114;2022-12-01T06:56:02;4.00;99.90
9125;DHT22;4597;48.730;9.114;2022-12-01T06:58:28;4.00;99.90
9125;DHT22;4597;48.730;9.114;2022-12-01T07:00:54;4.00;99.90
9125;DHT22;4597;48.730;9.114;2022-12-01T07:03:19;4.00;99.90
9125;DHT22;4597;48.730;9.114;2022-12-01T07:05:54;4.00;99.90
9125;DHT22;4597;48.730;9.114;2022-12-01T07:08:20;4.00;99.90
9125;DHT22;4597;48.730;9.114;2022-12-01T07:11:04;4.00;99.90
9125;DHT22;4597;48.730;9.114;2022-12-01T07:13:31;4.00;99.90
9125;DHT22;4597;48.730;9.114;2022-12-01T07:15:57;4.00;99.90
9125;DHT22;4597;48.730;9.114;2022-12-01T07:18:22;4.00;99.90
9125;DHT22;4597;48.730;9.114;2022-12-01T07:20:48;4.00;99.90
9125;DHT22;4597;48.730;9.114;2022-12-01T07:23:13;4.00;99.90
9125;DHT22;4597;48.730;9.114;2022-12-01T07:25:39;4.00;99.90
9125;DHT22;4597;48.730;9.114;2022-12-01T07:28:04;4.00;99.90
9125;DHT22;4597;48.730;9.114;2022-12-01T07:30:30;4.00;99.90
9125;DHT22;4597;48.730;9.114;2022-12-01T07:32:55;4.00;99.90
9125;DHT22;4597;48.730;9.114;2022-12-01T07:35:21;3.90;99.90
9125;DHT22;4597;48.730;9.114;2022-12-01T07:37:46;3.90;99.90
9125;DHT22;4597;48.730;9.114;2022-12-01T07:40:12;3.90;99.90
9125;DHT22;4597;48.730;9.114;2022-12-01T07:42:40;4.00;99.90
9125;DHT22;4597;48.730;9.114;2022-12-01T07:45:06;4.00;99.90
9125;DHT22;4597;48.730;9.114;2022-12-01T07:47:32;4.00;99.90
9125;DHT22;4597;48.730;9.114;2022-12-01T07:49:57;4.00;99.90
9125;DHT22;4597;48.730;9.114;2022-12-01T07:52:23;3.90;99.90
9125;DHT22;4597;48.730;9.114;2022-12-01T07:54:48;3.90;99.90
9125;DHT22;4597;48.730;9.114;2022-12-01T07:57:14;4.00;99.90
9125;DHT22;4597;48.730;9.114;2022-12-01T07:59:39;4.00;99.90
9125;DHT22;4597;48.730;9.114;2022-12-01T08:02:07;4.10;99.90
9125;DHT22;4597;48.730;9.114;2022-12-01T08:04:32;4.10;99.90
9125;DHT22;4597;48.730;9.114;2022-12-01T08:06:58;4.10;99.90
9125;DHT22;4597;48.730;9.114;2022-12-01T08:09:23;4.10;99.90
9125;DHT22;4597;48.730;9.114;2022-12-01T08:11:49;4.00;99.90
9125;DHT22;4597;48.730;9.114;2022-12-01T08:14:15;4.00;99.90
9125;DHT22;4597;48.730;9.114;2022-12-01T08:16:40;4.00;99.90
9125;DHT22;4597;48.730;9.114;2022-12-01T08:19:09;4.00;99.90
9125;DHT22;4597;48.730;9.114;2022-12-01T08:21:34;4.00;99.90
9125;DHT22;4597;48.730;9.114;2022-12-01T08:24:02;4.00;99.90
9125;DHT22;4597;48.730;9.114;2022-12-01T08:26:28;4.00;99.90
9125;DHT22;4597;48.730;9.114;2022-12-01T08:28:54;4.00;99.90
9125;DHT22;4597;48.730;9.114;2022-12-01T08:31:23;4.10;99.90
9125;DHT22;4597;48.730;9.114;2022-12-01T08:33:49;4.10;99.90
9125;DHT22;4597;48.730;9.114;2022-12-01T08:36:15;4.10;99.90
9125;DHT22;4597;48.730;9.114;2022-12-01T08:38:42;4.20;99.90
9125;DHT22;4597;48.730;9.114;2022-12-01T08:41:09;4.10;99.90
9125;DHT22;4597;48.730;9.114;2022-12-01T08:43:34;4.10;99.90
9125;DHT22;4597;48.730;9.114;2022-12-01T08:46:05;4.20;99.90
9125;DHT22;4597;48.730;9.114;2022-12-01T08:48:30;4.20;99.90
9125;DHT22;4597;48.730;9.114;2022-12-01T08:51:09;4.10;99.90
9125;DHT22;4597;48.730;9.114;2022-12-01T08:53:37;4.10;99.90
9125;DHT22;4597;48.730;9.114;2022-12-01T08:58:39;4.20;99.90
9125;DHT22;4597;48.730;9.114;2022-12-01T09:01:07;4.20;99.90
9125;DHT22;4597;48.730;9.114;2022-12-01T09:03:34;4.20;99.90
9125;DHT22;4597;48.730;9.114;2022-12-01T09:06:08;4.20;99.90
9125;DHT22;4597;48.730;9.114;2022-12-01T09:08:35;4.20;99.90
9125;DHT22;4597;48.730;9.114;2022-12-01T09:11:08;4.20;99.90
9125;DHT22;4597;48.730;9.114;2022-12-01T09:13:35;4.20;99.90
9125;DHT22;4597;48.730;9.114;2022-12-01T09:16:03;4.20;99.90
9125;DHT22;4597;48.730;9.114;2022-12-01T09:18:30;4.30;99.90
9125;DHT22;4597;48.730;9.114;2022-12-01T09:20:56;4.30;99.90
9125;DHT22;4597;48.730;9.114;2022-12-01T09:23:23;4.30;99.90
9125;DHT22;4597;48.730;9.114;2022-12-01T09:25:49;4.30;99.90
9125;DHT22;4597;48.730;9.114;2022-12-01T09:28:15;4.40;99.90
9125;DHT22;4597;48.730;9.114;2022-12-01T09:30:43;4.40;99.90
9125;DHT22;4597;48.730;9.114;2022-12-01T09:33:08;4.40;99.90
9125;DHT22;4597;48.730;9.114;2022-12-01T09:35:34;4.40;99.90
9125;DHT22;4597;48.730;9.114;2022-12-01T09:38:00;4.30;99.90
9125;DHT22;4597;48.730;9.114;2022-12-01T09:40:33;4.30;99.90
9125;DHT22;4597;48.730;9.114;2022-12-01T09:43:00;4.30;99.90
9125;DHT22;4597;48.730;9.114;2022-12-01T09:45:30;4.30;99.90
9125;DHT22;4597;48.730;9.114;2022-12-01T09:47:58;4.30;99.90
9125;DHT22;4597;48.730;9.114;2022-12-01T09:50:25;4.40;99.90
9125;DHT22;4597;48.730;9.114;2022-12-01T09:53:12;4.40;99.90
9125;DHT22;4597;48.730;9.114;2022-12-01T09:55:42;4.40;99.90
9125;DHT22;4597;48.730;9.114;2022-12-01T09:58:14;4.40;99.90
9125;DHT22;4597;48.730;9.114;2022-12-01T10:00:41;4.40;99.90
9125;DHT22;4597;48.730;9.114;2022-12-01T10:05:47;4.40;99.90
9125;DHT22;4597;48.730;9.114;2022-12-01T10:08:20;4.30;99.90
9125;DHT22;4597;48.730;9.114;2022-12-01T10:10:48;4.40;99.90
9125;DHT22;4597;48.730;9.114;2022-12-01T10:13:23;4.40;99.90
9125;DHT22;4597;48.730;9.114;2022-12-01T10:16:09;4.40;99.90
9125;DHT22;4597;48.730;9.114;2022-12-01T10:18:45;4.40;99.90
9125;DHT22;4597;48.730;9.114;2022-12-01T10:27:07;4.40;99.90
9125;DHT22;4597;48.730;9.114;2022-12-01T10:29:47;4.40;99.90
9125;DHT22;4597;48.730;9.114;2022-12-01T10:32:19;4.50;99.90
9125;DHT22;4597;48.730;9.114;2022-12-01T10:34:46;4.60;99.90
9125;DHT22;4597;48.730;9.114;2022-12-01T10:37:19;4.60;99.90
9125;DHT22;4597;48.730;9.114;2022-12-01T10:39:48;4.60;99.90
9125;DHT22;4597;48.730;9.114;2022-12-01T10:42:21;4.60;99.90
9125;DHT22;4597;48.730;9.114;2022-12-01T10:44:52;4.60;99.90
9125;DHT22;4597;48.730;9.114;2022-12-01T10:47:24;4.60;99.90
9125;DHT22;4597;48.730;9.114;2022-12-01T10:49:50;4.60;99.90
9125;DHT22;4597;48.730;9.114;2022-12-01T10:54:58;4.70;99.90
9125;DHT22;4597;48.730;9.114;2022-12-01T10:57:26;4.70;99.90
9125;DHT22;4597;48.730;9.114;2022-12-01T10:59:59;4.80;99.90
9125;DHT22;4597;48.730;9.114;2022-12-01T11:02:27;4.80;99.90
9125;DHT22;4597;48.730;9.114;2022-12-01T11:05:01;4.80;99.90
9125;DHT22;4597;48.730;9.114;2022-12-01T11:07:40;4.80;99.90
9125;DHT22;4597;48.730;9.114;2022-12-01T11:12:34;4.80;99.90
9125;DHT22;4597;48.730;9.114;2022-12-01T11:15:00;4.80;99.90
9125;DHT22;4597;48.730;9.114;2022-12-01T11:17:40;4.80;99.90
9125;DHT22;4597;48.730;9.114;2022-12-01T11:25:34;4.80;99.90
9125;DHT22;4597;48.730;9.114;2022-12-01T11:28:02;4.80;99.90
9125;DHT22;4597;48.730;9.114;2022-12-01T11:30:30;4.80;99.90
9125;DHT22;4597;48.730;9.114;2022-12-01T11:32:58;4.80;99.90
9125;DHT22;4597;48.730;9.114;2022-12-01T11:35:31;4.80;99.90
9125;DHT22;4597;48.730;9.114;2022-12-01T11:37:59;4.80;99.90
9125;DHT22;4597;48.730;9.114;2022-12-01T11:40:31;4.90;99.90
9125;DHT22;4597;48.730;9.114;2022-12-01T11:43:03;4.80;99.90
9125;DHT22;4597;48.730;9.114;2022-12-01T11:45:37;4.80;99.90
9125;DHT22;4597;48.730;9.114;2022-12-01T11:50:34;4.90;99.90
9125;DHT22;4597;48.730;9.114;2022-12-01T11:53:01;4.90;99.90
9125;DHT22;4597;48.730;9.114;2022-12-01T11:55:29;4.90;99.90
9125;DHT22;4597;48.730;9.114;2022-12-01T11:57:58;5.00;99.90
9125;DHT22;4597;48.730;9.114;2022-12-01T12:00:27;5.00;99.90
9125;DHT22;4597;48.730;9.114;2022-12-01T12:03:19;5.00;99.90
9125;DHT22;4597;48.730;9.114;2022-12-01T12:12:12;5.00;99.90
9125;DHT22;4597;48.730;9.114;2022-12-01T12:15:01;5.00;99.90
9125;DHT22;4597;48.730;9.114;2022-12-01T12:17:47;5.10;99.90
9125;DHT22;4597;48.730;9.114;2022-12-01T12:20:28;5.00;99.90
9125;DHT22;4597;48.730;9.114;2022-12-01T12:25:58;5.00;99.90
9125;DHT22;4597;48.730;9.114;2022-12-01T12:31:38;5.10;99.90
9125;DHT22;4597;48.730;9.114;2022-12-01T12:34:32;5.00;99.90
9125;DHT22;4597;48.730;9.114;2022-12-01T12:37:19;5.10;99.90
9125;DHT22;4597;48.730;9.114;2022-12-01T12:40:13;5.10;99.90
9125;DHT22;4597;48.730;9.114;2022-12-01T12:51:11;5.10;99.90
9125;DHT22;4597;48.730;9.114;2022-12-01T12:53:59;5.10;99.90
9125;DHT22;4597;48.730;9.114;2022-12-01T12:56:30;5.20;99.90
9125;DHT22;4597;48.730;9.114;2022-12-01T12:59:24;5.20;99.90
9125;DHT22;4597;48.730;9.114;2022-12-01T13:04:44;5.10;99.90
9125;DHT22;4597;48.730;9.114;2022-12-01T13:07:31;5.10;99.90
9125;DHT22;4597;48.730;9.114;2022-12-01T13:10:05;5.20;99.90
9125;DHT22;4597;48.730;9.114;2022-12-01T13:12:35;5.20;99.90
9125;DHT22;4597;48.730;9.114;2022-12-01T13:15:18;5.20;99.90
9125;DHT22;4597;48.730;9.114;2022-12-01T13:17:50;5.20;99.90
9125;DHT22;4597;48.730;9.114;2022-12-01T13:20:20;5.20;99.90
9125;DHT22;4597;48.730;9.114;2022-12-01T13:22:47;5.20;99.90
9125;DHT22;4597;48.730;9.114;2022-12-01T13:25:17;5.30;99.90
9125;DHT22;4597;48.730;9.114;2022-12-01T13:27:44;5.30;99.90
9125;DHT22;4597;48.730;9.114;2022-12-01T13:30:26;5.30;99.90
9125;DHT22;4597;48.730;9.114;2022-12-01T13:33:00;5.30;99.90
9125;DHT22;4597;48.730;9.114;2022-12-01T13:35:33;5.30;99.90
9125;DHT22;4597;48.730;9.114;2022-12-01T13:38:32;5.30;99.90
9125;DHT22;4597;48.730;9.114;2022-12-01T13:41:34;5.30;99.90
9125;DHT22;4597;48.730;9.114;2022-12-01T13:49:48;5.20;99.90
9125;DHT22;4597;48.730;9.114;2022-12-01T13:57:43;5.10;99.90
9125;DHT22;4597;48.730;9.114;2022-12-01T14:00:24;5.00;99.90
9125;DHT22;4597;48.730;9.114;2022-12-01T14:08:22;5.10;99.90
9125;DHT22;4597;48.730;9.114;2022-12-01T14:11:19;5.10;99.90
9125;DHT22;4597;48.730;9.114;2022-12-01T14:16:51;5.10;99.90
9125;DHT22;4597;48.730;9.114;2022-12-01T14:19:45;5.10;99.90
9125;DHT22;4597;48.730;9.114;2022-12-01T14:22:40;5.10;99.90
9125;DHT22;4597;48.730;9.114;2022-12-01T14:27:48;5.10;99.90
9125;DHT22;4597;48.730;9.114;2022-12-01T14:43:53;5.20;99.90
9125;DHT22;4597;48.730;9.114;2022-12-01T14:46:43;5.20;99.90
9125;DHT22;4597;48.730;9.114;2022-12-01T14:50:00;5.10;99.90
9125;DHT22;4597;48.730;9.114;2022-12-01T14:52:04;5.10;99.90
9125;DHT22;4597;48.730;9.114;2022-12-01T14:54:42;5.10;99.90
9125;DHT22;4597;48.730;9.114;2022-12-01T14:57:09;5.10;99.90
9125;DHT22;4597;48.730;9.114;2022-12-01T14:59:36;5.10;99.90
9125;DHT22;4597;48.730;9.114;2022-12-01T15:02:04;5.10;99.90
9125;DHT22;4597;48.730;9.114;2022-12-01T15:04:35;5.10;99.90
9125;DHT22;4597;48.730;9.114;2022-12-01T15:07:21;5.10;99.90
9125;DHT22;4597;48.730;9.114;2022-12-01T15:09:59;5.10;99.90
9125;DHT22;4597;48.730;9.114;2022-12-01T15:12:27;5.20;99.90
9125;DHT22;4597;48.730;9.114;2022-12-01T15:14:53;5.20;99.90
9125;DHT22;4597;48.730;9.114;2022-12-01T15:17:33;5.20;99.90
9125;DHT22;4597;48.730;9.114;2022-12-01T15:20:01;5.20;99.90
9125;DHT22;4597;48.730;9.114;2022-12-01T15:22:32;5.30;99.90
9125;DHT22;4597;48.730;9.114;2022-12-01T15:25:12;5.30;99.90
9125;DHT22;4597;48.730;9.114;2022-12-01T15:27:39;5.30;99.90
9125;DHT22;4597;48.730;9.114;2022-12-01T15:30:05;5.20;99.90
9125;DHT22;4597;48.730;9.114;2022-12-01T15:32:33;5.10;99.90
9125;DHT22;4597;48.730;9.114;2022-12-01T15:35:02;5.10;99.90
9125;DHT22;4597;48.730;9.114;2022-12-01T15:37:38;5.10;99.90
9125;DHT22;4597;48.730;9.114;2022-12-01T15:40:06;5.10;99.90
9125;DHT22;4597;48.730;9.114;2022-12-01T15:42:34;5.10;99.90
9125;DHT22;4597;48.730;9.114;2022-12-01T15:50:35;5.10;99.90
9125;DHT22;4597;48.730;9.114;2022-12-01T15:53:23;5.10;99.90
9125;DHT22;4597;48.730;9.114;2022-12-01T15:55:50;5.10;99.90
9125;DHT22;4597;48.730;9.114;2022-12-01T15:58:21;5.10;99.90
9125;DHT22;4597;48.730;9.114;2022-12-01T16:01:04;5.10;99.90
9125;DHT22;4597;48.730;9.114;2022-12-01T16:03:31;5.10;99.90
9125;DHT22;4597;48.730;9.114;2022-12-01T16:05:58;5.00;99.90
9125;DHT22;4597;48.730;9.114;2022-12-01T16:08:25;5.10;99.90
9125;DHT22;4597;48.730;9.114;2022-12-01T16:11:15;5.10;99.90
9125;DHT22;4597;48.730;9.114;2022-12-01T16:13:47;5.00;99.90
9125;DHT22;4597;48.730;9.114;2022-12-01T16:18:54;5.00;99.90
9125;DHT22;4597;48.730;9.114;2022-12-01T16:21:19;5.00;99.90
9125;DHT22;4597;48.730;9.114;2022-12-01T16:23:45;5.00;99.90
9125;DHT22;4597;48.730;9.114;2022-12-01T16:26:11;5.00;99.90
9125;DHT22;4597;48.730;9.114;2022-12-01T16:28:38;5.10;99.90
9125;DHT22;4597;48.730;9.114;2022-12-01T16:31:05;5.00;99.90
9125;DHT22;4597;48.730;9.114;2022-12-01T16:33:35;5.00;99.90
9125;DHT22;4597;48.730;9.114;2022-12-01T16:36:02;5.00;99.90
9125;DHT22;4597;48.730;9.114;2022-12-01T16:38:28;5.00;99.90
9125;DHT22;4597;48.730;9.114;2022-12-01T16:40:56;4.90;99.90
9125;DHT22;4597;48.730;9.114;2022-12-01T16:43:24;4.90;99.90
9125;DHT22;4597;48.730;9.114;2022-12-01T16:45:57;4.90;99.90
9125;DHT22;4597;48.730;9.114;2022-12-01T16:48:24;4.90;99.90
9125;DHT22;4597;48.730;9.114;2022-12-01T16:50:50;4.90;99.90
9125;DHT22;4597;48.730;9.114;2022-12-01T16:53:16;4.90;99.90
9125;DHT22;4597;48.730;9.114;2022-12-01T16:55:53;4.90;99.90
9125;DHT22;4597;48.730;9.114;2022-12-01T16:58:19;4.90;99.90
9125;DHT22;4597;48.730;9.114;2022-12-01T17:00:45;4.90;99.90
9125;DHT22;4597;48.730;9.114;2022-12-01T17:03:17;4.90;99.90
9125;DHT22;4597;48.730;9.114;2022-12-01T17:05:42;4.90;99.90
9125;DHT22;4597;48.730;9.114;2022-12-01T17:08:08;4.90;99.90
9125;DHT22;4597;48.730;9.114;2022-12-01T17:10:38;4.90;99.90
9125;DHT22;4597;48.730;9.114;2022-12-01T17:13:03;4.90;99.90
9125;DHT22;4597;48.730;9.114;2022-12-01T17:15:29;4.90;99.90
9125;DHT22;4597;48.730;9.114;2022-12-01T17:17:54;4.90;99.90
9125;DHT22;4597;48.730;9.114;2022-12-01T17:20:20;4.90;99.90
9125;DHT22;4597;48.730;9.114;2022-12-01T17:22:45;4.90;99.90
9125;DHT22;4597;48.730;9.114;2022-12-01T17:25:11;4.90;99.90
9125;DHT22;4597;48.730;9.114;2022-12-01T17:27:37;4.80;99.90
9125;DHT22;4597;48.730;9.114;2022-12-01T17:30:05;4.80;99.90
9125;DHT22;4597;48.730;9.114;2022-12-01T17:32:30;4.80;99.90
9125;DHT22;4597;48.730;9.114;2022-12-01T17:34:57;4.80;99.90
9125;DHT22;4597;48.730;9.114;2022-12-01T17:37:22;4.90;99.90
9125;DHT22;4597;48.730;9.114;2022-12-01T17:39:48;4.80;99.90
9125;DHT22;4597;48.730;9.114;2022-12-01T17:42:14;4.90;99.90
9125;DHT22;4597;48.730;9.114;2022-12-01T17:44:39;4.80;99.90
9125;DHT22;4597;48.730;9.114;2022-12-01T17:47:05;4.80;99.90
9125;DHT22;4597;48.730;9.114;2022-12-01T17:49:31;4.80;99.90
9125;DHT22;4597;48.730;9.114;2022-12-01T17:51:56;4.80;99.90
9125;DHT22;4597;48.730;9.114;2022-12-01T17:54:22;4.80;99.90
9125;DHT22;4597;48.730;9.114;2022-12-01T17:56:47;4.80;99.90
9125;DHT22;4597;48.730;9.114;2022-12-01T17:59:13;4.80;99.90
9125;DHT22;4597;48.730;9.114;2022-12-01T18:01:39;4.80;99.90
9125;DHT22;4597;48.730;9.114;2022-12-01T18:04:06;4.80;99.90
9125;DHT22;4597;48.730;9.114;2022-12-01T18:06:32;4.80;99.90
9125;DHT22;4597;48.730;9.114;2022-12-01T18:08:58;4.80;99.90
9125;DHT22;4597;48.730;9.114;2022-12-01T18:11:25;4.80;99.90
9125;DHT22;4597;48.730;9.114;2022-12-01T18:13:50;4.80;99.90
9125;DHT22;4597;48.730;9.114;2022-12-01T18:16:19;4.80;99.90
9125;DHT22;4597;48.730;9.114;2022-12-01T18:18:45;4.80;99.90
9125;DHT22;4597;48.730;9.114;2022-12-01T18:21:13;4.80;99.90
9125;DHT22;4597;48.730;9.114;2022-12-01T18:23:39;4.80;99.90
9125;DHT22;4597;48.730;9.114;2022-12-01T18:26:09;4.80;99.90
9125;DHT22;4597;48.730;9.114;2022-12-01T18:28:36;4.70;99.90
9125;DHT22;4597;48.730;9.114;2022-12-01T18:31:04;4.70;99.90
9125;DHT22;4597;48.730;9.114;2022-12-01T18:33:32;4.70;99.90